createdAt,value
2022-10-24T00:00:46.616Z,29.50
2022-10-24T00:03:14.832Z,25.63
2022-10-24T00:05:44.739Z,27.07
2022-10-24T00:08:12.897Z,28.17
2022-10-24T00:10:43.962Z,28.30
2022-10-24T00:13:12.208Z,25.17
2022-10-24T00:15:40.419Z,29.97
2022-10-24T00:18:08.656Z,28.80
2022-10-24T00:20:37.264Z,26.50
2022-10-24T00:23:07.207Z,26.90
2022-10-24T00:25:35.268Z,30.70
2022-10-24T00:28:03.712Z,35.37
2022-10-24T00:30:31.804Z,31.63
2022-10-24T00:32:59.931Z,27.40
2022-10-24T00:35:28.127Z,30.40
2022-10-24T00:37:56.422Z,30.70
2022-10-24T00:40:26.036Z,32.37
2022-10-24T00:42:54.757Z,31.83
2022-10-24T00:45:47.674Z,28.10
2022-10-24T00:48:22.081Z,28.80
2022-10-24T00:50:51.180Z,29.90
2022-10-24T00:53:19.357Z,32.93
2022-10-24T00:55:50.937Z,32.30
2022-10-24T00:58:19.619Z,29.67
2022-10-24T01:00:47.751Z,30.27
2022-10-24T01:03:16.017Z,32.40
2022-10-24T01:06:03.843Z,26.83
2022-10-24T01:08:34.477Z,30.07
2022-10-24T01:11:07.798Z,33.10
2022-10-24T01:13:40.663Z,31.43
2022-10-24T01:16:12.456Z,29.40
2022-10-24T01:18:43.631Z,29.27
2022-10-24T01:21:24.893Z,29.87
2022-10-24T01:24:34.815Z,29.03
2022-10-24T01:27:34.093Z,28.93
2022-10-24T01:30:08.598Z,27.63
2022-10-24T01:32:40.377Z,29.30
2022-10-24T01:35:13.621Z,28.20
2022-10-24T01:37:44.416Z,25.33
2022-10-24T01:40:14.758Z,26.00
2022-10-24T01:42:42.855Z,27.77
2022-10-24T01:45:14.929Z,28.13
2022-10-24T01:47:45.315Z,27.40
2022-10-24T01:50:14.583Z,29.60
2022-10-24T01:52:44.720Z,28.40
2022-10-24T01:55:13.130Z,30.20
2022-10-24T01:57:42.693Z,28.90
2022-10-24T02:00:16.172Z,29.80
2022-10-24T02:02:45.835Z,28.07
2022-10-24T02:05:16.172Z,29.33
2022-10-24T02:07:44.980Z,33.97
2022-10-24T02:10:15.254Z,33.27
2022-10-24T02:12:45.096Z,32.57
2022-10-24T02:15:18.016Z,33.33
2022-10-24T02:17:46.494Z,31.27
2022-10-24T02:20:15.097Z,30.67
2022-10-24T02:22:46.691Z,35.73
2022-10-24T02:25:17.701Z,30.27
2022-10-24T02:27:49.861Z,30.10
2022-10-24T02:30:20.455Z,28.07
2022-10-24T02:32:50.041Z,31.30
2022-10-24T02:35:19.224Z,25.80
2022-10-24T02:37:49.023Z,28.03
2022-10-24T02:40:17.718Z,29.20
2022-10-24T02:42:45.991Z,31.37
2022-10-24T02:45:14.389Z,32.33
2022-10-24T02:47:44.699Z,29.47
2022-10-24T02:50:13.133Z,29.60
2022-10-24T02:52:42.300Z,32.43
2022-10-24T02:55:11.896Z,33.60
2022-10-24T02:57:40.167Z,29.53
2022-10-24T03:00:09.693Z,31.73
2022-10-24T03:02:37.785Z,34.93
2022-10-24T03:05:08.384Z,28.93
2022-10-24T03:07:36.519Z,31.23
2022-10-24T03:10:04.949Z,29.73
2022-10-24T03:12:33.157Z,34.00
2022-10-24T03:15:01.432Z,30.20
2022-10-24T03:17:29.663Z,31.13
2022-10-24T03:19:58.035Z,30.03
2022-10-24T03:22:30.587Z,30.73
2022-10-24T03:25:01.952Z,29.33
2022-10-24T03:27:30.447Z,34.43
2022-10-24T03:29:58.552Z,32.73
2022-10-24T03:34:59.927Z,35.53
2022-10-24T03:37:29.528Z,35.23
2022-10-24T03:39:57.668Z,32.77
2022-10-24T03:42:25.876Z,36.03
2022-10-24T03:44:54.081Z,42.37
2022-10-24T03:47:22.325Z,43.47
2022-10-24T03:49:50.487Z,43.07
2022-10-24T03:52:19.082Z,46.33
2022-10-24T03:54:48.628Z,44.50
2022-10-24T03:57:16.886Z,46.20
2022-10-24T03:59:45.158Z,54.50
2022-10-24T04:02:14.147Z,56.23
2022-10-24T04:04:42.493Z,50.80
2022-10-24T04:07:10.729Z,49.33
2022-10-24T04:09:38.810Z,51.07
2022-10-24T04:12:08.747Z,54.43
2022-10-24T04:14:37.067Z,58.03
2022-10-24T04:17:05.396Z,58.57
2022-10-24T04:19:33.542Z,56.13
2022-10-24T04:22:01.872Z,52.60
2022-10-24T04:24:29.978Z,53.67
2022-10-24T04:26:58.142Z,54.07
2022-10-24T04:29:27.788Z,54.40
2022-10-24T04:31:55.936Z,48.10
2022-10-24T04:34:24.135Z,45.57
2022-10-24T04:36:52.282Z,39.40
2022-10-24T04:39:20.870Z,41.57
2022-10-24T04:41:49.125Z,38.73
2022-10-24T04:44:17.278Z,36.30
2022-10-24T04:46:50.604Z,35.30
2022-10-24T04:49:19.591Z,34.47
2022-10-24T04:51:48.042Z,36.77
2022-10-24T04:54:16.242Z,36.73
2022-10-24T04:56:44.440Z,33.10
2022-10-24T04:59:12.719Z,36.23
2022-10-24T05:01:40.981Z,34.47
2022-10-24T05:04:10.616Z,32.00
2022-10-24T05:06:40.360Z,33.43
2022-10-24T05:09:11.042Z,33.47
2022-10-24T05:11:39.241Z,35.37
2022-10-24T05:14:07.321Z,36.50
2022-10-24T05:16:35.639Z,29.83
2022-10-24T05:19:03.846Z,32.43
2022-10-24T05:21:34.084Z,29.73
2022-10-24T05:24:02.214Z,26.80
2022-10-24T05:26:30.416Z,29.03
2022-10-24T05:28:58.543Z,29.17
2022-10-24T05:31:26.846Z,33.47
2022-10-24T05:33:55.009Z,28.70
2022-10-24T05:36:23.179Z,31.10
2022-10-24T05:38:52.651Z,29.37
2022-10-24T05:41:21.027Z,26.47
2022-10-24T05:43:49.089Z,23.10
2022-10-24T05:46:17.275Z,21.77
2022-10-24T05:48:45.423Z,19.83
2022-10-24T05:51:13.631Z,21.00
2022-10-24T05:53:41.692Z,16.60
2022-10-24T05:56:11.513Z,17.70
2022-10-24T05:58:39.726Z,16.63
2022-10-24T06:01:08.378Z,17.53
2022-10-24T06:03:36.805Z,16.60
2022-10-24T06:06:06.307Z,17.63
2022-10-24T06:08:35.402Z,16.77
2022-10-24T06:11:03.711Z,14.17
2022-10-24T06:13:36.069Z,13.80
2022-10-24T06:16:04.778Z,13.90
2022-10-24T06:18:32.880Z,15.40
2022-10-24T06:21:01.577Z,12.70
2022-10-24T06:23:29.659Z,13.20
2022-10-24T06:25:57.744Z,11.57
2022-10-24T06:28:25.994Z,12.67
2022-10-24T06:30:55.534Z,11.50
2022-10-24T06:33:23.653Z,13.10
2022-10-24T06:35:54.407Z,12.23
2022-10-24T06:38:22.763Z,12.90
2022-10-24T06:40:51.035Z,12.83
2022-10-24T06:43:19.703Z,15.50
2022-10-24T06:45:47.805Z,15.47
2022-10-24T06:48:17.392Z,14.57
2022-10-24T06:50:45.479Z,14.20
2022-10-24T06:53:13.869Z,13.63
2022-10-24T06:55:41.960Z,14.53
2022-10-24T06:58:10.099Z,15.03
2022-10-24T07:00:39.421Z,14.93
2022-10-24T07:03:07.677Z,16.07
2022-10-24T07:05:38.556Z,15.77
2022-10-24T07:08:07.297Z,18.40
2022-10-24T07:10:35.486Z,19.97
2022-10-24T07:13:03.544Z,15.70
2022-10-24T07:15:31.628Z,17.40
2022-10-24T07:17:59.745Z,15.33
2022-10-24T07:20:27.980Z,14.97
2022-10-24T07:22:57.498Z,15.30
2022-10-24T07:25:25.548Z,16.07
2022-10-24T07:27:54.785Z,17.47
2022-10-24T07:30:22.976Z,17.50
2022-10-24T07:32:51.104Z,17.57
2022-10-24T07:35:19.220Z,21.80
2022-10-24T07:37:47.576Z,13.10
2022-10-24T07:40:17.301Z,16.03
2022-10-24T07:42:45.476Z,19.07
2022-10-24T07:45:13.819Z,14.97
2022-10-24T07:47:42.149Z,15.67
2022-10-24T07:50:10.829Z,14.73
2022-10-24T07:52:38.886Z,13.17
2022-10-24T07:55:07.617Z,16.87
2022-10-24T07:57:37.108Z,11.53
2022-10-24T08:00:06.185Z,11.37
2022-10-24T08:02:34.466Z,16.03
2022-10-24T08:05:02.542Z,13.93
2022-10-24T08:07:30.669Z,11.67
2022-10-24T08:09:58.744Z,13.73
2022-10-24T08:12:26.823Z,14.03
2022-10-24T08:14:56.278Z,16.43
2022-10-24T08:17:24.794Z,13.50
2022-10-24T08:19:53.070Z,11.63
2022-10-24T08:22:21.223Z,11.17
2022-10-24T08:24:49.504Z,12.30
2022-10-24T08:27:17.611Z,14.87
2022-10-24T08:29:45.773Z,13.53
2022-10-24T08:32:15.222Z,12.70
2022-10-24T08:34:43.346Z,14.10
2022-10-24T08:37:11.459Z,11.33
2022-10-24T08:39:39.683Z,16.20
2022-10-24T08:42:09.100Z,10.43
2022-10-24T08:44:38.105Z,13.73
2022-10-24T08:47:10.075Z,10.90
2022-10-24T08:49:43.263Z,12.53
2022-10-24T08:52:18.274Z,13.43
2022-10-24T08:54:48.425Z,14.00
2022-10-24T08:57:21.237Z,11.47
2022-10-24T08:59:49.325Z,10.50
2022-10-24T09:02:19.701Z,11.50
2022-10-24T09:04:51.496Z,12.23
2022-10-24T09:07:20.660Z,12.80
2022-10-24T09:09:51.131Z,10.27
2022-10-24T09:12:19.994Z,10.57
2022-10-24T09:14:50.884Z,9.27
2022-10-24T09:17:20.957Z,12.47
2022-10-24T09:19:52.017Z,8.53
2022-10-24T09:22:20.174Z,12.47
2022-10-24T09:24:50.606Z,10.27
2022-10-24T09:29:53.687Z,11.00
2022-10-24T09:32:22.919Z,6.87
2022-10-24T09:34:52.425Z,7.33
2022-10-24T09:37:39.198Z,7.70
2022-10-24T09:40:21.079Z,8.33
2022-10-24T09:42:51.774Z,6.77
2022-10-24T09:45:31.911Z,5.70
2022-10-24T09:48:01.216Z,11.23
2022-10-24T09:50:30.700Z,7.47
2022-10-24T09:52:59.409Z,7.83
2022-10-24T09:55:28.835Z,5.80
2022-10-24T09:57:58.188Z,9.47
2022-10-24T10:00:28.075Z,6.43
2022-10-24T10:03:04.024Z,6.77
2022-10-24T10:05:46.810Z,8.97
2022-10-24T10:08:19.651Z,7.07
2022-10-24T10:10:59.926Z,6.50
2022-10-24T10:13:28.904Z,9.30
2022-10-24T10:15:57.836Z,8.07
2022-10-24T10:18:33.986Z,8.00
2022-10-24T10:21:06.807Z,10.30
2022-10-24T10:23:36.421Z,7.37
2022-10-24T10:26:27.392Z,9.33
2022-10-24T10:29:01.444Z,8.00
2022-10-24T10:31:35.542Z,7.43
2022-10-24T10:34:14.150Z,8.07
2022-10-24T10:37:02.642Z,10.30
2022-10-24T10:39:45.316Z,7.77
2022-10-24T10:42:16.162Z,9.00
2022-10-24T10:44:50.391Z,8.20
2022-10-24T10:47:26.750Z,10.57
2022-10-24T10:49:57.226Z,8.73
2022-10-24T10:52:31.299Z,7.73
2022-10-24T10:55:14.735Z,8.93
2022-10-24T10:57:45.899Z,8.87
2022-10-24T11:00:15.903Z,6.70
2022-10-24T11:03:08.346Z,10.07
2022-10-24T11:05:45.007Z,7.07
2022-10-24T11:08:33.508Z,8.73
2022-10-24T11:11:03.561Z,9.00
2022-10-24T11:13:34.321Z,8.03
2022-10-24T11:16:03.396Z,7.63
2022-10-24T11:18:35.331Z,7.20
2022-10-24T11:21:05.241Z,6.13
2022-10-24T11:23:37.092Z,7.33
2022-10-24T11:26:07.622Z,7.40
2022-10-24T11:28:40.118Z,10.37
2022-10-24T11:31:09.470Z,8.87
2022-10-24T11:33:47.698Z,7.33
2022-10-24T11:36:19.752Z,7.40
2022-10-24T11:38:52.191Z,8.43
2022-10-24T11:41:32.397Z,6.53
2022-10-24T11:44:02.431Z,7.90
2022-10-24T11:46:34.271Z,6.03
2022-10-24T11:49:04.472Z,8.90
2022-10-24T11:51:34.609Z,5.07
2022-10-24T11:54:05.465Z,7.17
2022-10-24T11:56:37.236Z,6.10
2022-10-24T11:59:06.112Z,5.20
2022-10-24T12:01:53.437Z,5.60
2022-10-24T12:04:49.335Z,5.50
2022-10-24T12:07:46.398Z,7.10
2022-10-24T12:10:30.998Z,6.57
2022-10-24T12:13:20.236Z,7.53
2022-10-24T12:15:49.827Z,7.87
2022-10-24T12:18:27.905Z,8.40
2022-10-24T12:20:56.798Z,7.73
2022-10-24T12:23:27.644Z,7.37
2022-10-24T12:26:19.555Z,9.77
2022-10-24T12:28:55.239Z,7.97
2022-10-24T12:31:26.440Z,6.80
2022-10-24T12:34:32.851Z,6.40
2022-10-24T12:37:05.723Z,7.67
2022-10-24T12:39:34.819Z,7.23
2022-10-24T12:42:04.547Z,7.67
2022-10-24T12:44:43.242Z,9.63
2022-10-24T12:47:39.268Z,8.90
2022-10-24T12:50:44.577Z,10.83
2022-10-24T12:53:19.658Z,12.03
2022-10-24T12:56:21.065Z,6.87
2022-10-24T12:59:01.419Z,9.33
2022-10-24T13:01:33.543Z,9.60
2022-10-24T13:04:24.638Z,7.47
2022-10-24T13:07:18.275Z,8.97
2022-10-24T13:09:50.505Z,8.67
2022-10-24T13:12:31.220Z,10.33
2022-10-24T13:15:15.001Z,7.87
2022-10-24T13:17:45.398Z,8.77
2022-10-24T13:20:18.125Z,6.47
2022-10-24T13:22:46.777Z,6.27
2022-10-24T13:25:22.217Z,6.73
2022-10-24T13:28:25.768Z,7.10
2022-10-24T13:31:30.161Z,8.27
2022-10-24T13:34:27.945Z,7.87
2022-10-24T13:37:18.233Z,11.70
2022-10-24T13:39:48.249Z,6.73
2022-10-24T13:42:25.194Z,7.23
2022-10-24T13:44:55.984Z,8.17
2022-10-24T13:47:27.078Z,8.20
2022-10-24T13:49:57.540Z,7.47
2022-10-24T13:52:30.513Z,9.07
2022-10-24T13:55:01.903Z,8.00
2022-10-24T13:57:33.787Z,7.13
2022-10-24T14:00:02.707Z,10.33
2022-10-24T14:02:34.006Z,8.33
2022-10-24T14:05:02.444Z,7.77
2022-10-24T14:07:31.498Z,10.97
2022-10-24T14:10:01.271Z,10.33
2022-10-24T14:12:31.162Z,9.70
2022-10-24T14:15:00.994Z,6.67
2022-10-24T14:17:30.861Z,7.70
2022-10-24T14:20:01.308Z,7.33
2022-10-24T14:22:30.670Z,7.07
2022-10-24T14:24:58.773Z,6.77
2022-10-24T14:27:26.941Z,8.33
2022-10-24T14:30:00.421Z,9.33
2022-10-24T14:32:29.018Z,8.33
2022-10-24T14:34:57.765Z,7.35
2022-10-24T14:37:34.542Z,8.47
2022-10-24T14:40:02.795Z,9.17
2022-10-24T14:42:30.929Z,8.23
2022-10-24T14:45:00.066Z,8.73
2022-10-24T14:47:30.392Z,7.43
2022-10-24T14:49:58.716Z,9.40
2022-10-24T14:52:28.538Z,8.87
2022-10-24T14:55:01.246Z,8.70
2022-10-24T14:57:30.005Z,7.87
2022-10-24T14:59:58.682Z,9.20
2022-10-24T15:02:28.585Z,10.30
2022-10-24T15:05:14.973Z,9.30
2022-10-24T15:07:57.108Z,9.43
2022-10-24T15:10:38.132Z,10.40
2022-10-24T15:13:12.330Z,11.07
2022-10-24T15:15:53.457Z,10.23
2022-10-24T15:18:22.784Z,10.83
2022-10-24T15:20:52.154Z,8.73
2022-10-24T15:23:22.376Z,9.47
2022-10-24T15:26:01.180Z,8.77
2022-10-24T15:28:43.833Z,10.70
2022-10-24T15:31:12.150Z,9.65
2022-10-24T15:36:22.925Z,9.73
2022-10-24T15:38:54.850Z,8.20
2022-10-24T15:41:24.473Z,9.70
2022-10-24T15:43:52.635Z,13.20
2022-10-24T15:46:22.044Z,10.63
2022-10-24T15:48:50.398Z,8.90
2022-10-24T15:51:19.483Z,9.63
2022-10-24T15:53:48.145Z,15.73
2022-10-24T15:56:16.192Z,9.50
2022-10-24T15:58:45.759Z,9.20
2022-10-24T16:01:24.397Z,9.27
2022-10-24T16:03:52.591Z,10.10
2022-10-24T16:06:22.038Z,10.53
2022-10-24T16:08:50.285Z,9.57
2022-10-24T16:11:18.724Z,10.80
2022-10-24T16:13:48.390Z,8.70
2022-10-24T16:16:16.623Z,9.73
2022-10-24T16:18:44.800Z,11.97
2022-10-24T16:21:14.194Z,11.80
2022-10-24T16:23:42.535Z,11.27
2022-10-24T16:26:10.860Z,15.03
2022-10-24T16:28:39.152Z,10.97
2022-10-24T16:31:09.556Z,11.03
2022-10-24T16:33:37.994Z,19.93
2022-10-24T16:36:06.714Z,11.87
2022-10-24T16:38:35.541Z,12.40
2022-10-24T16:41:03.780Z,10.87
2022-10-24T16:43:31.919Z,14.13
2022-10-24T16:46:00.202Z,13.70
2022-10-24T16:48:29.887Z,14.17
2022-10-24T16:50:58.007Z,15.00
2022-10-24T16:53:26.131Z,16.47
2022-10-24T16:55:55.732Z,14.40
2022-10-24T16:58:23.923Z,13.73
2022-10-24T17:00:52.197Z,14.50
2022-10-24T17:03:20.404Z,12.47
2022-10-24T17:05:51.861Z,13.60
2022-10-24T17:08:20.034Z,14.57
2022-10-24T17:10:48.193Z,15.50
2022-10-24T17:13:16.341Z,13.13
2022-10-24T17:15:44.415Z,12.77
2022-10-24T17:18:13.623Z,16.03
2022-10-24T17:20:44.185Z,15.53
2022-10-24T17:23:15.459Z,13.47
2022-10-24T17:25:43.704Z,13.13
2022-10-24T17:28:12.813Z,15.40
2022-10-24T17:30:41.142Z,15.57
2022-10-24T17:33:10.708Z,16.77
2022-10-24T17:35:41.828Z,14.00
2022-10-24T17:38:16.620Z,14.87
2022-10-24T17:40:45.781Z,14.17
2022-10-24T17:43:18.388Z,15.20
2022-10-24T17:45:47.163Z,16.00
2022-10-24T17:48:15.500Z,14.67
2022-10-24T17:50:43.738Z,14.63
2022-10-24T17:53:14.478Z,16.27
2022-10-24T17:55:47.155Z,19.23
2022-10-24T17:58:16.146Z,18.93
2022-10-24T18:00:44.801Z,18.43
2022-10-24T18:03:13.052Z,21.90
2022-10-24T18:05:41.182Z,24.00
2022-10-24T18:08:10.719Z,20.63
2022-10-24T18:10:40.378Z,19.50
2022-10-24T18:13:08.666Z,20.23
2022-10-24T18:15:37.258Z,19.93
2022-10-24T18:18:05.942Z,20.60
2022-10-24T18:20:34.837Z,16.93
2022-10-24T18:23:03.119Z,16.93
2022-10-24T18:25:31.292Z,17.20
2022-10-24T18:28:00.961Z,20.20
2022-10-24T18:30:29.102Z,20.40
2022-10-24T18:32:57.354Z,17.53
2022-10-24T18:35:27.487Z,20.17
2022-10-24T18:37:55.898Z,18.67
2022-10-24T18:40:24.751Z,16.53
2022-10-24T18:42:54.907Z,16.30
2022-10-24T18:45:26.514Z,15.83
2022-10-24T18:47:55.401Z,15.13
2022-10-24T18:50:24.659Z,16.93
2022-10-24T18:52:56.232Z,18.00
2022-10-24T18:55:25.866Z,14.03
2022-10-24T18:57:54.263Z,17.27
2022-10-24T19:00:24.653Z,16.47
2022-10-24T19:02:57.747Z,15.07
2022-10-24T19:05:28.195Z,14.17
2022-10-24T19:07:56.436Z,19.97
2022-10-24T19:10:26.177Z,15.83
2022-10-24T19:12:54.975Z,15.20
2022-10-24T19:15:25.510Z,16.60
2022-10-24T19:17:53.815Z,13.87
2022-10-24T19:20:22.974Z,14.00
2022-10-24T19:22:51.322Z,15.80
2022-10-24T19:25:20.850Z,14.93
2022-10-24T19:27:49.487Z,15.67
2022-10-24T19:30:17.819Z,19.60
2022-10-24T19:32:48.056Z,16.40
2022-10-24T19:35:17.428Z,13.90
2022-10-24T19:37:46.589Z,17.20
2022-10-24T19:40:14.992Z,16.27
2022-10-24T19:42:43.420Z,14.37
2022-10-24T19:45:12.259Z,16.70
2022-10-24T19:47:40.478Z,16.00
2022-10-24T19:50:12.656Z,20.40
2022-10-24T19:52:41.146Z,17.63
2022-10-24T19:55:09.566Z,18.80
2022-10-24T19:57:37.682Z,17.70
2022-10-24T20:00:06.572Z,17.37
2022-10-24T20:02:34.811Z,17.93
2022-10-24T20:05:03.189Z,18.40
2022-10-24T20:07:33.854Z,22.30
2022-10-24T20:10:02.123Z,21.30
2022-10-24T20:12:30.591Z,20.23
2022-10-24T20:14:58.734Z,23.33
2022-10-24T20:17:26.908Z,24.33
2022-10-24T20:19:55.117Z,27.37
2022-10-24T20:22:23.319Z,21.03
2022-10-24T20:24:52.813Z,22.00
2022-10-24T20:27:24.497Z,29.40
2022-10-24T20:29:53.078Z,23.37
2022-10-24T20:32:21.472Z,22.73
2022-10-24T20:34:49.651Z,24.10
2022-10-24T20:37:18.099Z,24.73
2022-10-24T20:39:46.260Z,23.17
2022-10-24T20:42:18.020Z,25.00
2022-10-24T20:44:46.396Z,21.60
2022-10-24T20:47:14.741Z,24.40
2022-10-24T20:49:42.922Z,27.13
2022-10-24T20:54:40.499Z,27.20
2022-10-24T20:57:08.802Z,26.87
2022-10-24T20:59:38.419Z,26.00
2022-10-24T21:02:08.337Z,26.23
2022-10-24T21:04:36.642Z,27.70
2022-10-24T21:07:05.091Z,24.93
2022-10-24T21:09:34.543Z,26.47
2022-10-24T21:12:03.112Z,25.50
2022-10-24T21:14:31.205Z,30.37
2022-10-24T21:17:01.173Z,28.33
2022-10-24T21:19:30.746Z,24.77
2022-10-24T21:21:58.994Z,27.97
2022-10-24T21:24:27.264Z,26.03
2022-10-24T21:26:55.601Z,29.03
2022-10-24T21:29:39.111Z,29.87
2022-10-24T21:32:08.776Z,33.37
2022-10-24T21:34:36.910Z,33.40
2022-10-24T21:37:05.424Z,28.63
2022-10-24T21:39:33.509Z,33.57
2022-10-24T21:42:01.725Z,31.87
2022-10-24T21:44:29.842Z,30.23
2022-10-24T21:46:58.323Z,29.20
2022-10-24T21:49:27.912Z,34.07
2022-10-24T21:51:56.331Z,29.07
2022-10-24T21:54:25.308Z,28.57
2022-10-24T21:56:53.616Z,28.27
2022-10-24T21:59:22.254Z,30.03
2022-10-24T22:01:51.413Z,32.53
2022-10-24T22:04:19.861Z,34.77
2022-10-24T22:06:49.593Z,30.87
2022-10-24T22:09:18.791Z,25.83
2022-10-24T22:11:47.091Z,28.47
2022-10-24T22:14:16.146Z,24.33
2022-10-24T22:16:46.131Z,30.80
2022-10-24T22:19:14.744Z,25.43
2022-10-24T22:21:44.041Z,28.33
2022-10-24T22:24:15.402Z,32.43
2022-10-24T22:26:43.880Z,28.60
2022-10-24T22:29:12.936Z,24.90
2022-10-24T22:31:42.079Z,26.77
2022-10-24T22:34:11.384Z,29.17
2022-10-24T22:36:48.905Z,25.17
2022-10-24T22:39:19.665Z,24.90
2022-10-24T22:41:48.793Z,26.10
2022-10-24T22:44:18.187Z,25.20
2022-10-24T22:47:04.237Z,26.80
2022-10-24T22:49:38.310Z,30.17
2022-10-24T22:52:07.131Z,24.07
2022-10-24T22:54:37.278Z,30.33
2022-10-24T22:57:06.678Z,31.23
2022-10-24T22:59:35.428Z,28.07
2022-10-24T23:02:06.709Z,25.60
2022-10-24T23:04:37.070Z,29.03
2022-10-24T23:07:11.493Z,25.90
2022-10-24T23:09:41.161Z,29.37
2022-10-24T23:12:11.739Z,30.10
2022-10-24T23:14:40.310Z,35.93
2022-10-24T23:17:09.188Z,31.60
2022-10-24T23:19:37.535Z,31.83
2022-10-24T23:22:10.381Z,31.80
2022-10-24T23:24:40.748Z,37.70
2022-10-24T23:27:19.439Z,34.87
2022-10-24T23:29:48.423Z,32.87
2022-10-24T23:32:21.030Z,38.33
2022-10-24T23:34:49.871Z,34.20
2022-10-24T23:37:23.116Z,39.20
2022-10-24T23:39:53.305Z,41.50
2022-10-24T23:42:22.003Z,36.17
2022-10-24T23:44:50.767Z,39.70
2022-10-24T23:47:25.992Z,42.67
2022-10-24T23:49:57.358Z,44.63
2022-10-24T23:52:27.525Z,45.80
2022-10-24T23:54:58.086Z,36.47
2022-10-24T23:57:26.913Z,41.60
2022-10-24T23:59:55.109Z,41.90
